Vegreville, Canada
Current Conditions -  °F | °C
As of 2:26 AM on Wednesday 28 Jan 2015 (Local Time) from CYED Reporting Station
Overcast Overcast  
Wind Chill: 21°   Ceiling: 100
Heat Index: 30°   Visibility: 1.2mi
Dew Point: 28°   Wind: 10mph
Humidity: 93%   Direction: 260°W
Pressure: 29.95"   Gusts: NA
Location:  53.5°N, 112.05°W
Report Text: CYED 280926Z AUTO 26009KT 1 1/4SM OVC001 M01/M02 A2995
Loading
Personal Weather Stations






























Interactive Weather Map New forecast layout! Learn more

10-Day Weather Forecast

Advertisements
Track Severe Weather on mobile